createdAt,value
2017-08-30T03:01:24.037Z,16.57
2017-08-30T03:03:52.428Z,15.23
2017-08-30T03:06:20.777Z,14.63
2017-08-30T03:08:49.146Z,15.80
2017-08-30T03:11:17.497Z,15.40
2017-08-30T03:13:45.850Z,15.90
2017-08-30T03:16:14.220Z,15.77
2017-08-30T03:18:42.573Z,16.20
2017-08-30T03:21:11.955Z,15.50
2017-08-30T03:23:40.474Z,14.50
2017-08-30T03:26:08.823Z,15.43
2017-08-30T03:28:37.180Z,16.63
2017-08-30T03:31:05.568Z,15.10
2017-08-30T03:33:34.692Z,14.57
2017-08-30T03:36:03.100Z,15.93
2017-08-30T03:38:31.482Z,16.10
2017-08-30T03:40:59.833Z,16.90
2017-08-30T03:43:28.252Z,15.37
2017-08-30T03:45:56.933Z,15.90
2017-08-30T03:48:25.379Z,16.57
2017-08-30T03:50:53.725Z,15.10
2017-08-30T03:53:22.882Z,14.30
2017-08-30T03:55:51.046Z,14.77
2017-08-30T03:58:19.389Z,15.73
2017-08-30T04:00:47.757Z,15.20
2017-08-30T04:03:16.105Z,14.27
2017-08-30T04:05:44.459Z,15.50
2017-08-30T04:08:12.845Z,13.90
2017-08-30T04:10:41.199Z,15.63
2017-08-30T04:13:09.548Z,16.60
2017-08-30T04:15:37.914Z,15.07
2017-08-30T04:18:06.384Z,15.20
2017-08-30T04:20:34.756Z,15.27
2017-08-30T04:23:03.132Z,14.80
2017-08-30T04:25:31.514Z,14.80
2017-08-30T04:28:00.196Z,14.20
2017-08-30T04:30:28.382Z,14.50
2017-08-30T04:32:56.728Z,16.10
2017-08-30T04:35:25.081Z,14.80
2017-08-30T04:37:53.450Z,15.93
2017-08-30T04:40:21.803Z,15.67
2017-08-30T04:42:50.157Z,15.07
2017-08-30T04:45:18.521Z,13.83
2017-08-30T04:47:46.873Z,14.30
2017-08-30T04:50:15.312Z,14.10
2017-08-30T04:52:43.692Z,12.70
2017-08-30T04:55:12.049Z,14.47
2017-08-30T04:57:40.396Z,14.33
2017-08-30T05:00:08.756Z,14.43
2017-08-30T05:02:37.108Z,14.93
2017-08-30T05:05:05.471Z,13.80
2017-08-30T05:07:33.865Z,12.73
2017-08-30T05:10:02.224Z,12.70
2017-08-30T05:12:30.582Z,14.20
2017-08-30T05:14:59.014Z,14.87
2017-08-30T05:17:27.370Z,11.73
2017-08-30T05:19:55.712Z,14.67
2017-08-30T05:22:24.089Z,13.50
2017-08-30T05:24:52.441Z,13.07
2017-08-30T05:27:20.893Z,13.17
2017-08-30T05:29:49.251Z,12.90
2017-08-30T05:32:17.669Z,13.10
2017-08-30T05:34:46.029Z,13.30
2017-08-30T05:37:14.395Z,12.77
2017-08-30T05:39:42.751Z,13.27
2017-08-30T05:42:11.109Z,14.60
2017-08-30T05:44:39.523Z,12.83
2017-08-30T05:47:07.865Z,12.00
2017-08-30T05:49:36.252Z,12.50
2017-08-30T05:52:05.384Z,13.13
2017-08-30T05:54:33.756Z,13.33
2017-08-30T05:57:02.104Z,13.17
2017-08-30T05:59:30.481Z,13.30
2017-08-30T06:01:59.620Z,12.10
2017-08-30T06:04:27.986Z,12.00
2017-08-30T06:06:56.354Z,12.07
2017-08-30T06:09:24.708Z,12.77
2017-08-30T06:11:53.062Z,12.30
2017-08-30T06:14:21.440Z,10.70
2017-08-30T06:16:49.829Z,12.00
2017-08-30T06:19:18.202Z,12.67
2017-08-30T06:21:46.593Z,12.13
2017-08-30T06:24:14.952Z,11.23
2017-08-30T06:26:43.317Z,11.73
2017-08-30T06:29:11.693Z,11.73
2017-08-30T06:31:40.113Z,12.33
2017-08-30T06:34:08.471Z,11.83
2017-08-30T06:36:36.657Z,11.70
2017-08-30T06:39:04.329Z,12.07
2017-08-30T06:41:32.697Z,11.87
2017-08-30T06:44:01.070Z,11.00
2017-08-30T06:46:29.431Z,10.87
2017-08-30T06:48:57.790Z,10.50
2017-08-30T06:51:26.220Z,10.40
2017-08-30T06:53:54.590Z,11.47
2017-08-30T06:56:22.934Z,9.70
2017-08-30T06:58:51.296Z,10.20
2017-08-30T07:01:20.414Z,10.30
2017-08-30T07:03:48.769Z,9.20
2017-08-30T07:06:17.920Z,9.80
2017-08-30T07:08:46.296Z,9.67
2017-08-30T07:11:14.654Z,9.03
2017-08-30T07:13:43.022Z,9.57
2017-08-30T07:16:11.380Z,8.50
2017-08-30T07:18:39.732Z,9.37
2017-08-30T07:21:08.141Z,10.10
2017-08-30T07:23:36.755Z,10.33
2017-08-30T07:26:05.107Z,9.27
2017-08-30T07:28:34.263Z,9.50
2017-08-30T07:31:02.966Z,8.50
2017-08-30T07:33:31.311Z,8.90
2017-08-30T07:35:59.501Z,8.97
2017-08-30T07:38:27.849Z,8.90
2017-08-30T07:40:56.197Z,9.50
2017-08-30T07:43:24.571Z,9.00
2017-08-30T07:45:52.955Z,8.80
2017-08-30T07:48:21.755Z,8.87
2017-08-30T07:50:50.205Z,9.03
2017-08-30T07:53:18.602Z,8.60
2017-08-30T07:55:50.917Z,8.13
2017-08-30T07:58:19.481Z,8.50
2017-08-30T08:00:48.683Z,9.03
2017-08-30T08:03:17.832Z,8.10
2017-08-30T08:05:48.404Z,9.23
2017-08-30T08:08:17.021Z,8.30
2017-08-30T08:10:45.677Z,7.57
2017-08-30T08:13:14.801Z,7.83
2017-08-30T08:15:43.152Z,7.67
2017-08-30T08:18:11.538Z,8.23
2017-08-30T08:20:40.412Z,8.50
2017-08-30T08:23:09.731Z,8.07
2017-08-30T08:25:38.193Z,8.50
2017-08-30T08:28:07.517Z,7.67
2017-08-30T08:30:35.909Z,7.83
2017-08-30T08:33:04.404Z,7.63
2017-08-30T08:35:32.820Z,7.43
2017-08-30T08:38:02.000Z,7.40
2017-08-30T08:40:30.433Z,7.50
2017-08-30T08:42:59.567Z,7.73
2017-08-30T08:45:28.039Z,8.10
2017-08-30T08:47:58.056Z,7.70
2017-08-30T08:50:26.434Z,8.37
2017-08-30T08:52:54.855Z,7.70
2017-08-30T08:55:23.476Z,7.53
2017-08-30T08:57:51.826Z,8.20
2017-08-30T09:00:20.178Z,8.13
2017-08-30T09:02:48.542Z,8.67
2017-08-30T09:05:16.892Z,7.73
2017-08-30T09:07:45.251Z,6.90
2017-08-30T09:10:13.647Z,7.13
2017-08-30T09:12:42.087Z,7.50
2017-08-30T09:15:10.467Z,7.70
2017-08-30T09:17:38.899Z,7.13
2017-08-30T09:20:07.285Z,7.10
2017-08-30T09:22:35.721Z,9.13
2017-08-30T09:25:04.227Z,7.50
2017-08-30T09:27:32.577Z,7.90
2017-08-30T09:30:00.956Z,6.97
2017-08-30T09:32:29.521Z,7.07
2017-08-30T09:34:57.881Z,7.50
2017-08-30T09:37:26.292Z,7.33
2017-08-30T09:39:54.661Z,7.90
2017-08-30T09:42:23.017Z,7.20
2017-08-30T09:44:51.374Z,7.57
2017-08-30T09:47:19.414Z,7.00
2017-08-30T09:49:47.859Z,7.73
2017-08-30T09:52:16.300Z,7.43
2017-08-30T09:54:44.668Z,7.40
2017-08-30T09:57:13.022Z,7.13
2017-08-30T09:59:41.367Z,6.93
2017-08-30T10:02:09.734Z,6.60
2017-08-30T10:04:38.079Z,7.80
2017-08-30T10:07:06.434Z,8.33
2017-08-30T10:09:34.784Z,6.83
2017-08-30T10:12:03.193Z,6.60
2017-08-30T10:14:32.258Z,6.83
2017-08-30T10:17:00.621Z,6.63
2017-08-30T10:19:28.978Z,7.33
2017-08-30T10:21:57.321Z,6.50
2017-08-30T10:24:25.694Z,6.63
2017-08-30T10:26:54.040Z,7.40
2017-08-30T10:29:22.398Z,7.87
2017-08-30T10:31:50.765Z,6.43
2017-08-30T10:34:19.121Z,7.17
2017-08-30T10:36:47.468Z,6.63
2017-08-30T10:39:15.839Z,6.67
2017-08-30T10:41:44.460Z,7.00
2017-08-30T10:44:12.916Z,6.17
2017-08-30T10:46:41.105Z,7.00
2017-08-30T10:49:09.456Z,6.20
2017-08-30T10:51:37.805Z,6.63
2017-08-30T10:54:07.928Z,6.70
2017-08-30T10:56:36.308Z,6.87
2017-08-30T10:59:04.698Z,6.00
2017-08-30T11:01:33.070Z,6.60
2017-08-30T11:04:01.250Z,6.00
2017-08-30T11:06:29.606Z,6.97
2017-08-30T11:08:57.980Z,6.10
2017-08-30T11:11:26.329Z,6.60
2017-08-30T11:13:54.675Z,6.67
2017-08-30T11:16:23.050Z,6.90
2017-08-30T11:18:51.397Z,6.40
2017-08-30T11:21:19.917Z,6.80
2017-08-30T11:23:49.093Z,6.83
2017-08-30T11:26:17.681Z,6.50
2017-08-30T11:28:45.847Z,7.30
2017-08-30T11:31:14.217Z,6.30
2017-08-30T11:33:42.598Z,6.33
2017-08-30T11:36:14.790Z,6.80
2017-08-30T11:38:43.141Z,6.30
2017-08-30T11:41:11.499Z,6.80
2017-08-30T11:43:40.277Z,5.70
2017-08-30T11:46:08.693Z,7.03
2017-08-30T11:48:37.050Z,6.00
2017-08-30T11:51:05.445Z,6.50
2017-08-30T11:53:33.813Z,6.00
2017-08-30T11:56:02.170Z,6.40
2017-08-30T11:58:30.586Z,7.20
2017-08-30T12:00:59.509Z,6.62
2017-08-30T12:03:28.639Z,5.80
2017-08-30T12:05:56.992Z,6.47
2017-08-30T12:08:25.358Z,6.20
2017-08-30T12:10:53.812Z,6.03
2017-08-30T12:13:22.733Z,6.40
2017-08-30T12:15:51.152Z,6.90
2017-08-30T12:18:19.488Z,5.70
2017-08-30T12:20:47.844Z,5.97
2017-08-30T12:23:16.244Z,7.20
2017-08-30T12:25:44.605Z,6.80
2017-08-30T12:28:13.049Z,6.40
2017-08-30T12:30:42.188Z,5.60
2017-08-30T12:33:11.179Z,6.07
2017-08-30T12:35:39.565Z,6.10
2017-08-30T12:38:13.440Z,6.77
2017-08-30T12:40:42.358Z,6.47
2017-08-30T12:43:10.726Z,6.30
2017-08-30T12:45:39.652Z,6.32
2017-08-30T12:48:08.559Z,6.22
2017-08-30T12:50:37.478Z,6.28
2017-08-30T12:53:06.510Z,6.00
2017-08-30T12:55:35.464Z,6.55
2017-08-30T12:58:04.395Z,5.95
2017-08-30T13:00:33.338Z,5.95
2017-08-30T13:03:02.258Z,6.32
2017-08-30T13:05:31.282Z,6.10
2017-08-30T13:08:00.238Z,6.43
2017-08-30T13:10:28.583Z,6.37
2017-08-30T13:12:56.943Z,5.90
2017-08-30T13:15:25.890Z,6.28
2017-08-30T13:17:54.806Z,5.95
2017-08-30T13:20:23.162Z,6.00
2017-08-30T13:22:51.533Z,5.97
2017-08-30T13:25:20.450Z,6.05
2017-08-30T13:27:49.361Z,6.35
2017-08-30T13:30:18.297Z,6.25
2017-08-30T13:32:47.217Z,6.32
2017-08-30T13:35:16.135Z,5.82
2017-08-30T13:37:45.337Z,5.62
2017-08-30T13:40:14.253Z,6.60
2017-08-30T13:42:43.149Z,5.43
2017-08-30T13:45:12.083Z,6.32
2017-08-30T13:47:40.429Z,6.20
2017-08-30T13:50:09.597Z,5.37
2017-08-30T13:52:38.551Z,6.10
2017-08-30T13:55:07.169Z,6.43
2017-08-30T13:57:36.097Z,5.78
2017-08-30T14:00:04.333Z,6.45
2017-08-30T14:02:33.249Z,6.62
2017-08-30T14:05:02.153Z,6.07
2017-08-30T14:07:31.315Z,6.55
2017-08-30T14:10:00.209Z,6.05
2017-08-30T14:12:29.141Z,6.65
2017-08-30T14:14:58.097Z,5.80
2017-08-30T14:17:26.469Z,6.80
2017-08-30T14:19:54.824Z,6.30
2017-08-30T14:22:23.217Z,5.83
2017-08-30T14:24:51.569Z,6.13
2017-08-30T14:27:19.919Z,7.10
2017-08-30T14:29:48.296Z,6.13
2017-08-30T14:32:16.652Z,7.10
2017-08-30T14:34:45.018Z,7.23
2017-08-30T14:37:13.610Z,7.33
2017-08-30T14:39:41.960Z,5.57
2017-08-30T14:42:10.308Z,6.67
2017-08-30T14:44:38.691Z,6.77
2017-08-30T14:47:07.053Z,7.00
2017-08-30T14:49:35.416Z,6.47
2017-08-30T14:52:03.787Z,6.80
2017-08-30T14:54:32.837Z,6.53
2017-08-30T14:57:01.185Z,5.50
2017-08-30T14:59:30.318Z,7.17
2017-08-30T15:01:58.668Z,6.67
2017-08-30T15:04:27.023Z,7.50
2017-08-30T15:06:55.038Z,5.77
2017-08-30T15:09:23.397Z,6.70
2017-08-30T15:11:51.754Z,7.33
2017-08-30T15:14:20.221Z,7.50
2017-08-30T15:16:48.609Z,7.00
2017-08-30T15:19:16.969Z,7.53
2017-08-30T15:21:45.384Z,7.20
2017-08-30T15:24:13.745Z,7.10
2017-08-30T15:26:42.130Z,7.10
2017-08-30T15:29:10.500Z,7.20
2017-08-30T15:31:38.872Z,6.20
2017-08-30T15:34:07.229Z,7.20
2017-08-30T15:36:35.626Z,6.70
2017-08-30T15:39:03.295Z,7.30
2017-08-30T15:41:31.657Z,7.97
2017-08-30T15:44:00.026Z,7.20
2017-08-30T15:46:28.448Z,6.73
2017-08-30T15:48:56.798Z,6.17
2017-08-30T15:51:26.833Z,6.60
2017-08-30T15:53:55.213Z,7.50
2017-08-30T15:56:23.569Z,5.70
2017-08-30T15:58:51.947Z,6.50
2017-08-30T16:01:20.365Z,7.40
2017-08-30T16:03:48.723Z,6.30
2017-08-30T16:06:17.089Z,6.10
2017-08-30T16:08:45.493Z,6.20
2017-08-30T16:11:13.866Z,6.70
2017-08-30T16:13:42.480Z,4.83
2017-08-30T16:16:10.830Z,6.27
2017-08-30T16:18:39.188Z,7.00
2017-08-30T16:21:07.554Z,6.57
2017-08-30T16:23:35.904Z,7.63
2017-08-30T16:26:04.266Z,7.10
2017-08-30T16:28:33.395Z,6.33
2017-08-30T16:31:01.743Z,7.40
2017-08-30T16:33:30.093Z,6.37
2017-08-30T16:35:58.523Z,5.90
2017-08-30T16:38:27.645Z,6.33
2017-08-30T16:40:56.002Z,7.50
2017-08-30T16:43:24.402Z,6.87
2017-08-30T16:45:52.752Z,7.37
2017-08-30T16:48:21.379Z,6.90
2017-08-30T16:50:49.741Z,6.90
2017-08-30T16:53:18.080Z,6.23
2017-08-30T16:55:47.124Z,6.30
2017-08-30T16:58:15.485Z,6.07
2017-08-30T17:00:43.661Z,6.90
2017-08-30T17:03:12.012Z,7.00
2017-08-30T17:05:40.391Z,5.93
2017-08-30T17:08:09.005Z,6.00
2017-08-30T17:10:38.114Z,6.60
2017-08-30T17:13:06.748Z,7.00
2017-08-30T17:15:35.114Z,7.57
2017-08-30T17:18:03.969Z,6.93
2017-08-30T17:20:32.336Z,6.90
2017-08-30T17:23:00.698Z,8.20
2017-08-30T17:25:29.047Z,8.03
2017-08-30T17:27:57.231Z,8.30
2017-08-30T17:30:25.572Z,7.53
2017-08-30T17:32:53.932Z,8.70
2017-08-30T17:35:23.062Z,7.77
2017-08-30T17:37:51.422Z,9.27
2017-08-30T17:40:19.786Z,8.53
2017-08-30T17:42:48.413Z,7.70
2017-08-30T17:45:16.756Z,8.97
2017-08-30T17:47:44.946Z,8.70
2017-08-30T17:50:13.314Z,8.50
2017-08-30T17:52:41.672Z,8.80
2017-08-30T17:55:10.135Z,8.60
2017-08-30T17:57:38.552Z,9.13
2017-08-30T18:00:06.721Z,8.47
2017-08-30T18:02:35.068Z,8.60
2017-08-30T18:05:03.446Z,8.73
2017-08-30T18:07:31.813Z,9.37
2017-08-30T18:10:00.166Z,9.33
2017-08-30T18:12:28.525Z,9.40
2017-08-30T18:14:56.873Z,8.33
2017-08-30T18:17:25.227Z,8.40
2017-08-30T18:19:54.365Z,9.10
2017-08-30T18:22:22.714Z,9.40
2017-08-30T18:24:51.077Z,8.73
2017-08-30T18:27:19.453Z,8.17
2017-08-30T18:29:47.811Z,8.40
2017-08-30T18:32:16.165Z,7.73
2017-08-30T18:34:44.350Z,8.17
2017-08-30T18:37:12.961Z,8.73
2017-08-30T18:39:41.309Z,9.80
2017-08-30T18:42:09.668Z,8.87
2017-08-30T18:44:38.088Z,9.10
2017-08-30T18:47:07.197Z,9.20
2017-08-30T18:49:35.562Z,9.10
2017-08-30T18:52:03.906Z,8.83
2017-08-30T18:54:32.320Z,8.80
2017-08-30T18:57:00.680Z,8.10
2017-08-30T18:59:29.032Z,8.30
2017-08-30T19:01:57.385Z,8.00
2017-08-30T19:04:26.708Z,8.83
2017-08-30T19:06:55.053Z,8.30
2017-08-30T19:09:23.404Z,9.27
2017-08-30T19:11:51.767Z,9.00
2017-08-30T19:14:20.117Z,9.00
2017-08-30T19:16:48.503Z,9.33
2017-08-30T19:19:16.869Z,11.20
2017-08-30T19:21:45.033Z,12.60
2017-08-30T19:24:13.201Z,11.27
2017-08-30T19:26:41.581Z,11.63
2017-08-30T19:29:09.925Z,9.63
2017-08-30T19:31:38.322Z,11.43
2017-08-30T19:34:06.746Z,11.20
2017-08-30T19:36:35.107Z,10.93
2017-08-30T19:39:03.109Z,11.60
2017-08-30T19:41:31.485Z,9.53
2017-08-30T19:43:59.834Z,9.83
2017-08-30T19:46:28.200Z,10.23
2017-08-30T19:48:56.577Z,11.40
2017-08-30T19:51:24.942Z,11.27
2017-08-30T19:53:53.110Z,10.10
2017-08-30T19:56:22.258Z,10.90
2017-08-30T19:58:50.416Z,10.33
2017-08-30T20:01:18.785Z,11.50
2017-08-30T20:03:47.155Z,9.73
2017-08-30T20:06:15.505Z,9.97
2017-08-30T20:08:43.861Z,10.23
2017-08-30T20:11:12.317Z,10.63
2017-08-30T20:13:40.662Z,10.83
2017-08-30T20:16:09.096Z,10.27
2017-08-30T20:18:37.568Z,11.10
2017-08-30T20:21:05.935Z,10.67
2017-08-30T20:23:36.080Z,10.93
2017-08-30T20:26:04.552Z,9.73
2017-08-30T20:28:32.910Z,10.30
2017-08-30T20:31:01.275Z,9.90
2017-08-30T20:33:29.632Z,10.30
2017-08-30T20:35:58.767Z,11.80
2017-08-30T20:38:27.120Z,12.47
2017-08-30T20:40:55.488Z,11.10
2017-08-30T20:43:24.647Z,11.33
2017-08-30T20:45:53.004Z,11.50
2017-08-30T20:48:21.379Z,11.60
2017-08-30T20:50:49.994Z,10.40
2017-08-30T20:53:18.638Z,10.77
2017-08-30T20:55:47.013Z,10.73
2017-08-30T20:58:15.441Z,12.17
2017-08-30T21:00:43.616Z,12.10
2017-08-30T21:03:11.997Z,10.60
2017-08-30T21:05:40.549Z,14.17
2017-08-30T21:08:09.109Z,12.63
2017-08-30T21:10:37.745Z,11.90
2017-08-30T21:13:06.332Z,11.40
2017-08-30T21:15:34.982Z,12.10
2017-08-30T21:18:03.376Z,12.30
2017-08-30T21:20:31.742Z,12.60
2017-08-30T21:23:00.157Z,15.93
2017-08-30T21:25:28.530Z,13.70
2017-08-30T21:27:56.904Z,15.43
2017-08-30T21:30:25.258Z,14.33
2017-08-30T21:32:53.632Z,14.30
2017-08-30T21:35:21.982Z,16.20
2017-08-30T21:37:50.432Z,15.93
2017-08-30T21:40:18.800Z,17.67
2017-08-30T21:42:47.183Z,16.13
2017-08-30T21:45:16.309Z,16.97
2017-08-30T21:47:44.680Z,14.53
2017-08-30T21:50:13.029Z,17.13
2017-08-30T21:52:41.387Z,17.27
2017-08-30T21:55:09.749Z,17.10
2017-08-30T21:57:38.105Z,16.10
2017-08-30T22:00:06.458Z,16.30
2017-08-30T22:02:34.825Z,17.30
2017-08-30T22:05:03.185Z,17.50
2017-08-30T22:07:31.804Z,15.47
2017-08-30T22:10:00.280Z,13.10
2017-08-30T22:12:28.640Z,16.43
2017-08-30T22:14:56.992Z,17.20
2017-08-30T22:17:25.354Z,15.90
2017-08-30T22:19:53.720Z,16.83
2017-08-30T22:22:22.180Z,15.77
2017-08-30T22:24:50.564Z,17.00
2017-08-30T22:27:18.950Z,15.53
2017-08-30T22:29:47.317Z,15.73
2017-08-30T22:32:15.695Z,16.80
2017-08-30T22:34:44.049Z,18.60
2017-08-30T22:37:12.461Z,16.63
2017-08-30T22:39:40.793Z,15.40
2017-08-30T22:42:09.145Z,16.40
2017-08-30T22:44:38.320Z,15.27
2017-08-30T22:47:06.692Z,13.90
2017-08-30T22:49:35.049Z,15.20
2017-08-30T22:52:03.408Z,14.17
2017-08-30T22:54:31.784Z,15.10
2017-08-30T22:57:00.140Z,15.53
2017-08-30T22:59:28.493Z,15.43
2017-08-30T23:01:56.863Z,15.13
2017-08-30T23:04:24.877Z,15.17
2017-08-30T23:06:53.228Z,13.73
2017-08-30T23:09:21.709Z,15.13
2017-08-30T23:11:50.074Z,15.83
2017-08-30T23:14:18.234Z,17.27
2017-08-30T23:16:46.606Z,18.63
2017-08-30T23:19:14.956Z,21.27
2017-08-30T23:21:43.409Z,19.70
2017-08-30T23:24:11.870Z,20.57
2017-08-30T23:26:40.225Z,19.60
2017-08-30T23:29:08.573Z,19.53
2017-08-30T23:31:37.017Z,20.50
2017-08-30T23:34:05.400Z,19.03
2017-08-30T23:36:33.777Z,18.90
2017-08-30T23:39:02.153Z,20.03
2017-08-30T23:41:30.505Z,19.07
2017-08-30T23:43:58.857Z,18.33
2017-08-30T23:46:28.000Z,20.37
2017-08-30T23:48:56.357Z,16.97
2017-08-30T23:51:24.519Z,16.67
2017-08-30T23:53:52.706Z,16.50
2017-08-30T23:56:21.057Z,15.70
2017-08-30T23:58:49.228Z,16.43
